Time;durP1;ratioP1;P1;durP2;ratioP2;P2;SDS_P1;SDS_P2;PMS_P1;PMS_P2;Temp;Humidity;BMP_temperature;BMP_pressure;BME280_temperature;BME280_humidity;BME280_pressure;Samples;Min_cycle;Max_cycle;Signal;HPM_P1;HPM_P2
2020/12/27 00:02:10;;;;;;;2.40;2.20;;;;;;;4.09;100.00;99863.84;5010147;28;20225;-71
2020/12/27 00:04:39;;;;;;;2.60;2.40;;;;;;;4.10;100.00;99862.78;4997584;28;20295;-72
2020/12/27 00:07:08;;;;;;;2.70;2.50;;;;;;;4.03;100.00;99856.78;5013974;28;20279;-70
2020/12/27 00:09:36;;;;;;;2.20;2.00;;;;;;;4.04;100.00;99855.72;4997338;28;20288;-70
2020/12/27 00:12:02;;;;;;;2.87;2.13;;;;;;;4.03;100.00;99840.66;4961259;28;20229;-70
2020/12/27 00:14:27;;;;;;;2.50;2.30;;;;;;;4.00;100.00;99843.84;4977294;28;20221;-70
2020/12/27 00:16:53;;;;;;;2.50;2.30;;;;;;;4.12;100.00;99844.53;4961172;28;20224;-70
2020/12/27 00:19:19;;;;;;;2.37;2.13;;;;;;;4.19;99.13;99843.28;4961577;28;20217;-72
2020/12/27 00:21:47;;;;;;;5.07;3.60;;;;;;;4.29;98.33;99830.78;4992798;28;20642;-70
2020/12/27 00:24:15;;;;;;;11.60;6.23;;;;;;;4.34;97.06;99806.66;4961831;28;20193;-70
2020/12/27 00:26:43;;;;;;;3.53;2.57;;;;;;;4.22;96.97;99810.53;5009659;28;20217;-71
2020/12/27 00:29:09;;;;;;;20.27;9.23;;;;;;;4.34;96.80;99809.34;4961626;28;20206;-71
2020/12/27 00:31:34;;;;;;;9.33;4.60;;;;;;;4.28;96.95;99794.19;4977094;28;20228;-70
2020/12/27 00:34:00;;;;;;;10.17;5.40;;;;;;;4.30;96.53;99792.09;4993804;28;20193;-70
2020/12/27 00:36:28;;;;;;;2.97;2.50;;;;;;;4.31;96.42;99788.34;4993135;28;20221;-71
2020/12/27 00:38:53;;;;;;;2.30;1.83;;;;;;;4.27;96.85;99787.22;4978544;28;20213;-70
2020/12/27 00:41:23;;;;;;;29.30;16.20;;;;;;;4.22;97.08;99768.34;4961164;28;20218;-70
2020/12/27 00:43:49;;;;;;;2.20;1.90;;;;;;;4.34;95.83;99763.66;4980096;28;20193;-70
2020/12/27 00:46:16;;;;;;;5.27;4.00;;;;;;;4.40;95.31;99761.84;4979769;28;20238;-71
2020/12/27 00:48:44;;;;;;;2.07;1.90;;;;;;;4.43;95.40;99748.69;4980482;28;20209;-70
2020/12/27 00:51:12;;;;;;;2.27;2.00;;;;;;;4.53;94.30;99747.97;4982929;28;20301;-70
2020/12/27 00:53:40;;;;;;;2.23;1.80;;;;;;;4.48;95.21;99745.22;4963223;28;20189;-70
2020/12/27 00:56:08;;;;;;;1.67;1.57;;;;;;;4.51;94.67;99742.84;5010606;28;20217;-70
2020/12/27 00:58:43;;;;;;;1.60;1.50;;;;;;;4.54;95.52;99734.25;4980868;28;20209;-70
2020/12/27 01:01:12;;;;;;;1.60;1.50;;;;;;;4.47;94.66;99728.31;4963730;28;20746;-70
2020/12/27 01:03:40;;;;;;;2.17;1.47;;;;;;;4.52;94.33;99719.47;4995964;28;20189;-71
2020/12/27 01:06:17;;;;;;;1.70;1.60;;;;;;;4.54;94.83;99712.75;4965035;28;20296;-71
2020/12/27 01:08:42;;;;;;;2.23;1.50;;;;;;;4.62;93.49;99721.16;4961693;28;20198;-70
2020/12/27 01:11:13;;;;;;;2.00;1.37;;;;;;;4.58;93.19;99700.44;4992988;28;20225;-70
2020/12/27 01:13:41;;;;;;;3.03;1.47;;;;;;;4.59;92.46;99692.09;5009638;28;20201;-71
2020/12/27 01:16:11;;;;;;;1.03;1.03;;;;;;;4.51;91.95;99681.03;4967691;28;20295;-71
2020/12/27 01:18:44;;;;;;;1.70;1.30;;;;;;;4.58;91.96;99676.25;4996546;28;20207;-71
2020/12/27 01:21:13;;;;;;;1.47;1.37;;;;;;;4.59;92.58;99664.41;4996821;28;20222;-71
2020/12/27 01:23:39;;;;;;;1.60;1.43;;;;;;;4.60;91.58;99663.34;5013242;28;20188;-70
2020/12/27 01:26:05;;;;;;;1.20;1.10;;;;;;;4.58;91.37;99654.72;4995525;28;20209;-70
2020/12/27 01:28:31;;;;;;;1.80;1.17;;;;;;;4.66;91.54;99656.94;5012292;28;20209;-71
2020/12/27 01:31:03;;;;;;;1.10;1.00;;;;;;;4.72;91.11;99639.75;4997728;28;20208;-71
2020/12/27 01:33:39;;;;;;;1.30;1.20;;;;;;;4.73;90.38;99633.31;5013059;28;20184;-71
2020/12/27 01:36:05;;;;;;;2.03;1.20;;;;;;;4.68;90.51;99631.41;4995317;28;20227;-70
2020/12/27 01:38:31;;;;;;;2.27;1.20;;;;;;;4.70;90.76;99615.81;4996113;28;20425;-71
2020/12/27 01:41:04;;;;;;;1.87;1.17;;;;;;;4.72;89.29;99607.50;5019390;28;20988;-71
2020/12/27 01:43:37;;;;;;;2.77;1.30;;;;;;;4.75;89.78;99609.66;4992325;28;20184;-71
2020/12/27 01:46:05;;;;;;;1.30;1.20;;;;;;;4.88;88.89;99615.38;5019044;28;20248;-70
2020/12/27 01:48:30;;;;;;;1.20;1.10;;;;;;;4.74;88.69;99599.97;5004306;28;20204;-71
2020/12/27 01:51:03;;;;;;;1.43;1.00;;;;;;;4.89;88.61;99573.16;5004506;28;20224;-71
2020/12/27 01:53:37;;;;;;;1.33;1.20;;;;;;;4.88;87.91;99591.19;5017674;28;20243;-71
2020/12/27 01:56:08;;;;;;;1.47;1.37;;;;;;;4.81;89.64;99573.66;4997227;28;20286;-70
2020/12/27 01:58:41;;;;;;;3.30;1.40;;;;;;;4.82;88.36;99581.47;4996641;28;20228;-71
2020/12/27 02:01:12;;;;;;;1.20;1.10;;;;;;;4.83;88.43;99561.56;4995180;28;20693;-70
2020/12/27 02:03:47;;;;;;;1.50;1.13;;;;;;;4.91;88.26;99560.25;4996572;28;20606;-71
2020/12/27 02:06:22;;;;;;;1.83;1.20;;;;;;;4.87;88.67;99556.47;4996567;28;20287;-71
2020/12/27 02:08:57;;;;;;;2.20;1.40;;;;;;;4.90;88.60;99566.72;4995651;28;20205;-71
2020/12/27 02:11:47;;;;;;;1.87;1.30;;;;;;;4.92;88.66;99553.81;4997840;28;20213;-71
2020/12/27 02:14:16;;;;;;;1.30;1.20;;;;;;;4.90;88.90;99540.63;4995275;28;20181;-71
2020/12/27 02:16:44;;;;;;;1.30;1.20;;;;;;;4.97;88.07;99521.56;4995281;28;20266;-71
2020/12/27 02:19:42;;;;;;;2.50;1.40;;;;;;;4.90;88.16;99502.16;5010810;28;20741;-71
2020/12/27 02:22:22;;;;;;;1.60;1.40;;;;;;;4.84;89.27;99479.00;4997800;28;20229;-71
2020/12/27 02:25:11;;;;;;;4.57;2.23;;;;;;;4.86;88.74;99468.81;4996918;28;20185;-72
2020/12/27 02:27:40;;;;;;;1.77;1.60;;;;;;;4.86;88.75;99479.56;5010875;28;20745;-71
2020/12/27 02:30:09;;;;;;;1.67;1.57;;;;;;;4.82;88.28;99463.13;5010282;28;20177;-71
2020/12/27 02:32:35;;;;;;;1.53;1.43;;;;;;;4.77;87.80;99452.34;4995376;28;20714;-71
2020/12/27 02:35:03;;;;;;;1.57;1.47;;;;;;;4.76;87.38;99452.63;4994289;28;20218;-71
2020/12/27 02:37:29;;;;;;;6.73;3.63;;;;;;;4.82;86.91;99451.59;5010381;28;20228;-71
2020/12/27 02:40:03;;;;;;;1.80;1.67;;;;;;;4.77;87.81;99440.81;4995948;28;20258;-72
2020/12/27 02:42:48;;;;;;;3.27;1.50;;;;;;;4.76;87.39;99436.47;5011122;28;20263;-71
2020/12/27 02:45:14;;;;;;;3.20;1.90;;;;;;;4.65;87.33;99424.06;5009633;28;20181;-71
2020/12/27 02:48:00;;;;;;;6.57;3.40;;;;;;;4.65;87.29;99424.06;4996470;28;20220;-72
2020/12/27 02:50:45;;;;;;;2.30;2.07;;;;;;;4.59;87.17;99427.81;4998358;28;20220;-71
2020/12/27 02:53:11;;;;;;;2.33;1.87;;;;;;;4.65;86.99;99421.38;5010909;28;20181;-71
2020/12/27 02:55:36;;;;;;;2.87;2.50;;;;;;;4.58;86.10;99423.53;5009742;28;20271;-71
2020/12/27 02:58:02;;;;;;;3.17;2.00;;;;;;;4.53;87.18;99415.44;4994831;28;20691;-72
2020/12/27 03:00:32;;;;;;;4.77;2.63;;;;;;;4.52;87.48;99408.44;4993852;28;20283;-71
2020/12/27 03:03:20;;;;;;;2.70;1.90;;;;;;;4.54;86.79;99390.16;4997737;28;20679;-71
2020/12/27 03:05:55;;;;;;;8.50;4.70;;;;;;;4.60;86.36;99378.38;4995241;28;20260;-71
2020/12/27 03:08:21;;;;;;;2.13;1.87;;;;;;;4.52;86.13;99380.75;4993833;28;20204;-71
2020/12/27 03:11:25;;;;;;;3.50;2.00;;;;;;;4.46;86.30;99385.31;5017103;28;20220;-71
2020/12/27 03:13:51;;;;;;;2.27;1.57;;;;;;;4.57;86.33;99380.78;5012287;28;20187;-71
2020/12/27 03:16:17;;;;;;;4.33;3.03;;;;;;;4.55;85.86;99386.44;5010145;28;20210;-71
2020/12/27 03:19:07;;;;;;;1.83;1.50;;;;;;;4.55;84.97;99367.59;5006389;28;20214;-72
2020/12/27 03:21:55;;;;;;;1.97;1.77;;;;;;;4.57;85.37;99352.03;5003395;28;20309;-71
2020/12/27 03:24:39;;;;;;;1.73;1.50;;;;;;;4.60;85.33;99340.75;4990720;28;20232;-72
2020/12/27 03:27:07;;;;;;;2.10;1.40;;;;;;;4.48;84.88;99337.47;5006208;28;20248;-71
2020/12/27 03:29:33;;;;;;;2.37;1.73;;;;;;;4.46;85.86;99312.75;4990677;28;20197;-71
2020/12/27 03:31:59;;;;;;;1.70;1.53;;;;;;;4.47;85.12;99330.50;4973801;28;20221;-71
2020/12/27 03:34:25;;;;;;;3.23;2.37;;;;;;;4.45;85.18;99313.84;4974007;28;20185;-72
2020/12/27 03:36:51;;;;;;;3.03;1.90;;;;;;;4.46;85.58;99312.75;4973880;28;20569;-71
2020/12/27 03:39:40;;;;;;;1.90;1.80;;;;;;;4.49;85.51;99296.09;4977542;28;20232;-70
2020/12/27 03:42:23;;;;;;;1.63;1.50;;;;;;;4.32;85.39;99279.41;4975730;28;20232;-70
2020/12/27 03:44:56;;;;;;;3.10;1.90;;;;;;;4.39;84.75;99263.81;5006576;28;20185;-69
2020/12/27 03:47:40;;;;;;;2.70;1.70;;;;;;;4.31;85.96;99266.25;5003629;28;20312;-70
2020/12/27 03:50:16;;;;;;;2.37;1.97;;;;;;;4.20;86.01;99261.13;5004600;28;20178;-70
2020/12/27 03:52:51;;;;;;;3.90;1.97;;;;;;;4.23;85.62;99243.38;4991556;28;20182;-72
2020/12/27 03:55:21;;;;;;;5.47;3.40;;;;;;;4.19;85.72;99241.47;4959029;28;20547;-71
2020/12/27 03:58:13;;;;;;;3.40;2.80;;;;;;;4.20;85.22;99242.31;4991513;28;20214;-72
2020/12/27 04:00:49;;;;;;;1.97;1.77;;;;;;;4.11;85.65;99220.53;4976333;28;20229;-69
2020/12/27 04:03:27;;;;;;;4.47;3.10;;;;;;;4.18;85.14;99223.78;4975829;28;20197;-73
2020/12/27 04:05:57;;;;;;;2.33;2.00;;;;;;;4.14;85.66;99213.81;4989367;28;20695;-71
2020/12/27 04:08:31;;;;;;;2.47;1.73;;;;;;;4.02;85.61;99208.69;4974639;28;20202;-70
2020/12/27 04:10:58;;;;;;;3.47;1.90;;;;;;;4.10;85.28;99199.31;4974506;28;20221;-70
2020/12/27 04:13:27;;;;;;;2.30;2.10;;;;;;;4.04;85.19;99200.38;4958283;28;20184;-70
2020/12/27 04:16:02;;;;;;;2.70;1.80;;;;;;;4.02;85.28;99181.84;4959827;28;20705;-72
2020/12/27 04:18:31;;;;;;;5.30;3.07;;;;;;;4.01;86.22;99180.25;4990385;28;20201;-69
2020/12/27 04:21:15;;;;;;;1.83;1.70;;;;;;;3.95;85.32;99156.31;4975974;28;20236;-70
2020/12/27 04:23:49;;;;;;;3.40;2.20;;;;;;;3.97;85.50;99151.47;4974603;28;20186;-70
2020/12/27 04:26:19;;;;;;;2.67;2.10;;;;;;;3.97;85.06;99151.47;4973730;28;20714;-70
2020/12/27 04:28:49;;;;;;;2.17;1.90;;;;;;;3.88;85.38;99143.16;4990756;28;20292;-70
2020/12/27 04:31:20;;;;;;;2.70;1.83;;;;;;;4.01;85.08;99145.31;4973619;28;20225;-70
2020/12/27 04:33:52;;;;;;;3.90;1.83;;;;;;;3.94;85.24;99130.56;4979851;28;20181;-70
2020/12/27 04:36:31;;;;;;;4.40;2.07;;;;;;;3.90;86.08;99114.16;4978499;28;20224;-71
2020/12/27 04:38:59;;;;;;;1.97;1.80;;;;;;;3.89;85.63;99106.38;4978012;28;20247;-71
2020/12/27 04:41:29;;;;;;;2.57;2.37;;;;;;;3.87;85.63;99111.19;4993415;28;20233;-71
2020/12/27 04:44:02;;;;;;;5.13;2.63;;;;;;;3.80;86.08;99110.66;4979377;28;20182;-70
2020/12/27 04:46:30;;;;;;;3.20;2.10;;;;;;;3.90;85.18;99107.97;5008118;28;20252;-70
2020/12/27 04:48:59;;;;;;;2.03;1.80;;;;;;;3.88;85.00;99105.56;4977756;28;20712;-70
2020/12/27 04:51:29;;;;;;;3.37;2.00;;;;;;;3.83;85.12;99091.34;4961683;28;20706;-71
2020/12/27 04:54:19;;;;;;;3.00;1.87;;;;;;;3.81;84.83;99096.16;4982207;28;20202;-70
2020/12/27 04:56:56;;;;;;;2.63;1.73;;;;;;;3.76;85.24;99074.69;4963722;28;20213;-71
2020/12/27 04:59:22;;;;;;;3.13;2.00;;;;;;;3.81;85.04;99066.63;4977071;28;20316;-70
2020/12/27 05:01:51;;;;;;;3.93;2.53;;;;;;;3.92;83.87;99061.00;4976238;28;20722;-73
2020/12/27 05:04:26;;;;;;;2.03;1.83;;;;;;;3.87;84.57;99063.66;4977292;28;20204;-72
2020/12/27 05:07:19;;;;;;;2.40;1.80;;;;;;;3.91;84.80;99061.25;4979105;28;20276;-72
2020/12/27 05:10:04;;;;;;;2.37;1.93;;;;;;;3.97;83.99;99046.75;4992757;28;20197;-72
2020/12/27 05:12:39;;;;;;;3.33;2.30;;;;;;;4.07;82.96;99054.81;4977697;28;20281;-72
2020/12/27 05:15:05;;;;;;;2.40;2.20;;;;;;;3.98;84.66;99034.94;4982132;28;20239;-72
2020/12/27 05:17:35;;;;;;;3.33;2.57;;;;;;;4.01;84.04;99034.41;5028860;28;20217;-72
2020/12/27 05:20:12;;;;;;;2.73;2.10;;;;;;;3.84;84.18;99040.03;4995761;28;20300;-71
2020/12/27 05:22:40;;;;;;;3.37;1.90;;;;;;;3.88;84.39;99018.84;5011822;28;20623;-71
2020/12/27 05:25:14;;;;;;;3.33;1.90;;;;;;;3.95;84.32;99030.91;4980391;28;20185;-71
2020/12/27 05:28:08;;;;;;;5.83;3.27;;;;;;;3.82;84.22;99005.69;5012073;28;20211;-71
2020/12/27 05:30:53;;;;;;;4.73;3.07;;;;;;;3.85;84.02;98989.84;5012383;28;20252;-72
2020/12/27 05:33:42;;;;;;;3.87;2.57;;;;;;;3.82;83.95;98988.50;4998024;28;20204;-71
2020/12/27 05:36:28;;;;;;;3.43;2.10;;;;;;;3.73;84.48;98977.78;5012410;28;20803;-71
2020/12/27 05:39:03;;;;;;;3.47;1.87;;;;;;;3.74;84.58;98961.41;4997902;28;20258;-70
2020/12/27 05:42:00;;;;;;;2.10;1.77;;;;;;;3.66;84.94;98961.94;4998744;28;20217;-72
2020/12/27 05:44:26;;;;;;;2.53;1.70;;;;;;;3.69;84.15;98955.25;5012565;28;20189;-70
2020/12/27 05:46:56;;;;;;;1.80;1.70;;;;;;;3.76;83.46;98945.84;5012101;28;20710;-69
2020/12/27 05:49:26;;;;;;;2.07;1.77;;;;;;;3.72;83.70;98939.41;4996921;28;20205;-70
2020/12/27 05:51:58;;;;;;;3.33;1.67;;;;;;;3.65;84.42;98917.41;4996267;28;20311;-70
2020/12/27 05:54:33;;;;;;;1.70;1.60;;;;;;;3.78;84.25;98914.16;4997030;28;20561;-70
2020/12/27 05:57:04;;;;;;;2.10;1.60;;;;;;;3.74;83.71;98886.25;5011533;28;20302;-72
2020/12/27 05:59:36;;;;;;;1.30;1.20;;;;;;;3.67;83.91;98891.09;4996042;28;20205;-71
2020/12/27 06:02:31;;;;;;;1.60;1.50;;;;;;;3.66;84.04;98892.16;5013187;28;20246;-72
2020/12/27 06:05:09;;;;;;;2.17;1.57;;;;;;;3.76;83.14;98880.63;5011554;28;20177;-72
2020/12/27 06:07:45;;;;;;;2.37;1.50;;;;;;;3.72;83.07;98885.72;4996436;28;20216;-72
2020/12/27 06:10:20;;;;;;;1.60;1.50;;;;;;;3.69;83.07;98872.84;5028102;28;20185;-72
2020/12/27 06:13:08;;;;;;;1.50;1.40;;;;;;;3.77;83.54;98879.53;4998906;28;20674;-70
2020/12/27 06:15:36;;;;;;;3.57;2.33;;;;;;;3.77;82.63;98866.09;5027235;28;20224;-72
2020/12/27 06:18:20;;;;;;;2.50;1.50;;;;;;;3.83;82.73;98861.25;4998170;28;20223;-73
2020/12/27 06:21:10;;;;;;;1.50;1.20;;;;;;;3.73;81.71;98865.06;4997349;28;20232;-72
2020/12/27 06:23:41;;;;;;;2.30;2.10;;;;;;;3.75;82.19;98852.94;5028126;28;20191;-71
2020/12/27 06:26:12;;;;;;;2.17;1.60;;;;;;;3.77;82.35;98850.78;4995186;28;20216;-72
2020/12/27 06:28:50;;;;;;;1.60;1.37;;;;;;;3.75;82.41;98831.47;4997291;28;20208;-72
2020/12/27 06:31:20;;;;;;;2.13;1.43;;;;;;;3.77;82.17;98832.00;5011377;28;20918;-70
2020/12/27 06:34:18;;;;;;;1.43;1.33;;;;;;;3.87;81.21;98834.69;4987350;28;20212;-69
2020/12/27 06:36:49;;;;;;;1.50;1.40;;;;;;;3.87;81.76;98823.94;4996148;28;20706;-70
2020/12/27 06:39:26;;;;;;;2.33;1.30;;;;;;;3.82;81.34;98821.25;4995887;28;20219;-72
2020/12/27 06:42:20;;;;;;;1.37;1.20;;;;;;;3.84;81.56;98808.38;5013088;28;20236;-70
2020/12/27 06:44:59;;;;;;;3.17;1.30;;;;;;;4.00;81.05;98812.63;4998655;28;20248;-72
2020/12/27 06:48:04;;;;;;;1.70;1.50;;;;;;;3.97;81.23;98791.66;5000916;28;20221;-72
2020/12/27 06:50:51;;;;;;;1.40;1.23;;;;;;;3.91;81.55;98782.03;4996955;28;20244;-72
2020/12/27 06:53:46;;;;;;;1.93;1.20;;;;;;;3.99;80.78;98781.47;5011315;28;20275;-72
2020/12/27 06:56:23;;;;;;;1.73;1.20;;;;;;;3.97;80.46;98775.56;4997435;28;20228;-72
2020/12/27 06:59:07;;;;;;;1.50;1.40;;;;;;;3.80;81.00;98775.09;4996860;28;20232;-72
2020/12/27 07:01:36;;;;;;;1.50;1.40;;;;;;;3.84;81.97;98770.78;5010362;28;20231;-70
2020/12/27 07:04:15;;;;;;;1.50;1.20;;;;;;;3.98;80.57;98766.44;5010613;28;20679;-70
2020/12/27 07:06:50;;;;;;;1.60;1.10;;;;;;;3.95;80.92;98753.56;5009982;28;20223;-73
2020/12/27 07:09:25;;;;;;;1.80;1.10;;;;;;;3.99;81.71;98752.75;5010465;28;20231;-70
2020/12/27 07:12:09;;;;;;;1.23;1.13;;;;;;;4.01;80.71;98750.59;4993348;28;20221;-70
2020/12/27 07:14:38;;;;;;;1.60;1.30;;;;;;;3.99;80.58;98728.59;4994310;28;20255;-70
2020/12/27 07:17:06;;;;;;;2.17;1.10;;;;;;;3.97;81.68;98728.03;4994322;28;20217;-71
2020/12/27 07:19:36;;;;;;;1.43;1.20;;;;;;;4.00;80.27;98711.38;5010603;28;20224;-70
2020/12/27 07:22:05;;;;;;;1.83;1.10;;;;;;;4.01;80.82;98712.16;4977208;28;20247;-70
2020/12/27 07:24:38;;;;;;;1.10;1.00;;;;;;;4.10;80.50;98705.13;5010147;28;20843;-70
2020/12/27 07:27:06;;;;;;;1.73;1.20;;;;;;;4.15;80.05;98686.31;4994074;28;20225;-71
2020/12/27 07:29:32;;;;;;;1.30;1.20;;;;;;;4.11;80.59;98685.28;4994028;28;20201;-70
2020/12/27 07:32:02;;;;;;;2.07;1.20;;;;;;;4.06;81.38;98694.13;4977818;28;20647;-70
2020/12/27 07:34:31;;;;;;;1.40;1.20;;;;;;;4.17;80.45;98678.78;4994080;28;20227;-71
2020/12/27 07:37:06;;;;;;;1.40;1.20;;;;;;;4.16;80.95;98682.53;5009976;28;20312;-69
2020/12/27 07:39:56;;;;;;;1.23;1.13;;;;;;;4.12;80.64;98668.88;5009995;28;20748;-70
2020/12/27 07:42:31;;;;;;;1.27;1.17;;;;;;;4.10;80.13;98656.78;4977621;28;20221;-70
2020/12/27 07:45:03;;;;;;;2.33;1.30;;;;;;;4.18;80.87;98653.53;5010222;28;20209;-70
2020/12/27 07:47:36;;;;;;;1.20;1.00;;;;;;;4.20;80.15;98640.63;4993023;28;20307;-69
2020/12/27 07:50:14;;;;;;;1.53;1.37;;;;;;;4.15;80.77;98646.03;4977580;28;20753;-71
2020/12/27 07:52:47;;;;;;;1.40;1.30;;;;;;;4.14;80.50;98614.88;5011334;28;20861;-71
2020/12/27 07:55:34;;;;;;;1.20;1.10;;;;;;;4.10;81.06;98609.25;4994542;28;20802;-70
2020/12/27 07:58:04;;;;;;;1.57;1.37;;;;;;;4.20;80.73;98619.94;5026442;28;20689;-70
2020/12/27 08:00:33;;;;;;;1.43;1.20;;;;;;;4.20;80.32;98615.34;4993493;28;20714;-70
2020/12/27 08:03:07;;;;;;;2.20;1.40;;;;;;;4.19;80.81;98609.47;5011207;28;20649;-71
2020/12/27 08:05:37;;;;;;;1.40;1.20;;;;;;;4.14;80.36;98598.75;4992983;28;20300;-70
2020/12/27 08:08:06;;;;;;;1.67;1.20;;;;;;;4.28;81.29;98587.88;4996547;28;20716;-71
2020/12/27 08:10:32;;;;;;;2.23;1.50;;;;;;;4.22;80.89;98591.69;5012884;28;20243;-71
2020/12/27 08:13:00;;;;;;;1.27;1.17;;;;;;;4.22;80.88;98583.63;4996797;28;21022;-71
2020/12/27 08:15:27;;;;;;;2.00;1.20;;;;;;;4.27;80.78;98588.19;4979838;28;20189;-71
2020/12/27 08:18:04;;;;;;;1.37;1.27;;;;;;;4.36;80.65;98571.16;4980668;28;20181;-71
2020/12/27 08:20:32;;;;;;;1.77;1.30;;;;;;;4.40;80.08;98556.06;4997528;28;20225;-71
2020/12/27 08:23:06;;;;;;;2.57;1.20;;;;;;;4.43;79.98;98563.59;4997703;28;20670;-71
2020/12/27 08:25:40;;;;;;;1.43;1.30;;;;;;;4.29;79.87;98554.56;4980565;28;20343;-71
2020/12/27 08:28:07;;;;;;;1.60;1.50;;;;;;;4.32;80.91;98550.50;5013913;28;20228;-71
2020/12/27 08:30:33;;;;;;;1.30;1.20;;;;;;;4.46;80.32;98538.03;5012721;28;20605;-71
2020/12/27 08:33:03;;;;;;;2.00;1.27;;;;;;;4.39;80.11;98527.59;5013859;28;20196;-70
2020/12/27 08:35:28;;;;;;;1.37;1.20;;;;;;;4.41;80.12;98546.91;4996406;28;20684;-70
2020/12/27 08:37:59;;;;;;;1.83;1.40;;;;;;;4.52;80.01;98542.25;5015770;28;20195;-70
2020/12/27 08:40:30;;;;;;;1.27;1.03;;;;;;;4.54;79.59;98535.50;5009626;28;20309;-71
2020/12/27 08:42:59;;;;;;;1.77;1.57;;;;;;;4.57;79.38;98524.19;4979425;28;20240;-71
2020/12/27 08:45:25;;;;;;;1.67;1.30;;;;;;;4.57;80.19;98512.63;4975853;28;20173;-69
2020/12/27 08:48:19;;;;;;;1.47;1.10;;;;;;;4.56;79.76;98521.78;4977298;28;20695;-70
2020/12/27 08:50:45;;;;;;;1.30;1.20;;;;;;;4.62;79.26;98522.25;4976644;28;20309;-71
2020/12/27 08:53:11;;;;;;;0.93;0.93;;;;;;;4.65;79.40;98515.47;4977196;28;20233;-69
2020/12/27 08:55:37;;;;;;;1.10;0.97;;;;;;;4.65;79.00;98497.50;4976427;28;20225;-70
2020/12/27 08:58:11;;;;;;;1.20;1.10;;;;;;;4.62;79.46;98495.34;4978103;28;20776;-70
2020/12/27 09:00:39;;;;;;;1.33;1.10;;;;;;;4.59;79.57;98508.56;4961610;28;20229;-70
2020/12/27 09:03:05;;;;;;;1.60;1.20;;;;;;;4.65;79.14;98516.31;4993081;28;20186;-71
2020/12/27 09:05:34;;;;;;;1.07;0.90;;;;;;;4.68;78.71;98482.66;4976119;28;20217;-72
2020/12/27 09:08:21;;;;;;;1.07;1.00;;;;;;;4.71;78.91;98498.22;4978067;28;20277;-70
2020/12/27 09:10:50;;;;;;;1.20;1.10;;;;;;;4.64;79.02;98481.63;4992584;28;20280;-72
2020/12/27 09:13:17;;;;;;;1.43;1.20;;;;;;;4.62;78.93;98484.63;4993256;28;20181;-70
2020/12/27 09:15:46;;;;;;;1.37;1.27;;;;;;;4.67;79.01;98471.13;4992108;28;20218;-71
2020/12/27 09:18:16;;;;;;;1.33;1.07;;;;;;;4.78;79.32;98471.78;4994268;28;20201;-71
2020/12/27 09:20:45;;;;;;;1.00;1.00;;;;;;;4.83;77.92;98445.63;4995237;28;20737;-71
2020/12/27 09:23:15;;;;;;;1.20;1.10;;;;;;;4.90;79.19;98439.91;5029110;28;20191;-74
2020/12/27 09:25:41;;;;;;;1.43;1.10;;;;;;;4.74;78.22;98417.00;4996693;28;20213;-73
2020/12/27 09:28:17;;;;;;;2.07;1.20;;;;;;;4.66;78.96;98423.81;4999112;28;20575;-71
2020/12/27 09:31:00;;;;;;;0.83;0.83;;;;;;;4.75;77.80;98413.22;5001934;28;20239;-71
2020/12/27 09:33:29;;;;;;;1.20;0.90;;;;;;;4.70;78.40;98421.34;5021836;28;20278;-70
2020/12/27 09:35:55;;;;;;;2.77;1.00;;;;;;;4.79;77.48;98414.25;4988159;28;20299;-72
2020/12/27 09:38:27;;;;;;;2.37;0.97;;;;;;;4.83;78.25;98409.88;5000621;28;20224;-73
2020/12/27 09:41:09;;;;;;;1.10;0.80;;;;;;;4.77;77.30;98405.66;5010243;28;20221;-71
2020/12/27 09:44:06;;;;;;;1.40;1.30;;;;;;;4.80;77.73;98405.06;5002057;28;20259;-71
2020/12/27 09:46:43;;;;;;;1.13;0.90;;;;;;;4.75;78.05;98380.97;5007008;28;20214;-71
2020/12/27 09:49:22;;;;;;;1.13;1.03;;;;;;;4.73;77.99;98388.53;4994792;28;20220;-71
2020/12/27 09:52:01;;;;;;;0.80;0.80;;;;;;;4.84;78.15;98384.59;5002429;28;20491;-71
2020/12/27 09:54:29;;;;;;;1.10;1.10;;;;;;;4.78;79.21;98385.75;5012480;28;20216;-72
2020/12/27 09:56:55;;;;;;;2.10;0.90;;;;;;;4.80;77.94;98367.44;5010225;28;20892;-70
2020/12/27 09:59:22;;;;;;;1.07;0.97;;;;;;;4.82;77.65;98370.66;4995317;28;20212;-71
2020/12/27 10:01:48;;;;;;;1.00;0.90;;;;;;;4.81;77.94;98379.81;4973029;28;20658;-72
2020/12/27 10:04:14;;;;;;;0.67;0.67;;;;;;;4.78;77.08;98359.69;5034759;28;20240;-72
2020/12/27 10:06:39;;;;;;;0.93;0.90;;;;;;;4.85;76.96;98359.31;5006855;28;20263;-71
2020/12/27 10:09:05;;;;;;;1.50;0.90;;;;;;;4.84;77.74;98349.66;4994979;28;20196;-71
2020/12/27 10:11:36;;;;;;;1.07;0.90;;;;;;;4.93;77.95;98340.63;4988390;28;20276;-70
2020/12/27 10:14:01;;;;;;;1.33;1.00;;;;;;;4.94;77.43;98346.81;4999482;28;20201;-72
2020/12/27 10:16:27;;;;;;;1.47;0.90;;;;;;;4.90;77.31;98341.22;5005586;28;20260;-72
2020/12/27 10:18:53;;;;;;;1.20;0.80;;;;;;;4.98;76.71;98322.53;5010246;28;20224;-70
2020/12/27 10:21:18;;;;;;;0.97;0.90;;;;;;;4.95;76.94;98326.91;4987821;28;20229;-71
2020/12/27 10:23:49;;;;;;;1.23;0.90;;;;;;;5.06;76.49;98296.84;5003922;28;20192;-71
2020/12/27 10:26:17;;;;;;;0.93;0.87;;;;;;;5.00;77.02;98306.09;5016322;28;20217;-70
2020/12/27 10:28:42;;;;;;;1.00;0.90;;;;;;;5.05;76.79;98295.25;5006064;28;20201;-70
2020/12/27 10:31:09;;;;;;;0.80;0.80;;;;;;;5.05;76.77;98290.69;4985177;28;20276;-71
2020/12/27 10:33:35;;;;;;;0.90;0.90;;;;;;;5.00;77.01;98281.91;4988436;28;20268;-71
2020/12/27 10:36:01;;;;;;;1.73;0.87;;;;;;;5.01;76.04;98286.97;5022927;28;20282;-71
2020/12/27 10:38:26;;;;;;;0.90;0.90;;;;;;;5.03;77.30;98279.41;4983663;28;20217;-71
2020/12/27 10:40:53;;;;;;;1.00;0.90;;;;;;;5.11;76.28;98267.16;4990760;28;20236;-73
2020/12/27 10:43:19;;;;;;;2.00;0.80;;;;;;;5.12;76.85;98248.03;5002387;28;20192;-72
2020/12/27 10:45:45;;;;;;;6.47;4.00;;;;;;;5.11;75.66;98246.47;5022161;28;20248;-72
2020/12/27 10:48:11;;;;;;;2.80;2.20;;;;;;;5.18;76.70;98236.13;5009183;28;20220;-72
2020/12/27 10:50:38;;;;;;;0.80;0.80;;;;;;;5.25;75.66;98249.97;4989441;28;20218;-72
2020/12/27 10:53:04;;;;;;;1.03;1.03;;;;;;;5.24;76.33;98234.94;5007124;28;20185;-71
2020/12/27 10:55:29;;;;;;;0.90;0.90;;;;;;;5.21;76.78;98216.69;4991576;28;20225;-71
2020/12/27 10:57:55;;;;;;;0.90;0.90;;;;;;;5.25;76.60;98212.31;5000384;28;20177;-72
2020/12/27 11:00:21;;;;;;;1.57;0.83;;;;;;;5.25;76.36;98204.22;5032591;28;20225;-70
2020/12/27 11:02:47;;;;;;;0.67;0.67;;;;;;;5.35;75.90;98199.47;5000481;28;20188;-72
2020/12/27 11:05:13;;;;;;;1.27;0.70;;;;;;;5.34;76.79;98188.19;5000408;28;20189;-71
2020/12/27 11:07:39;;;;;;;1.10;0.90;;;;;;;5.49;75.97;98194.06;4971633;28;20198;-71
2020/12/27 11:10:07;;;;;;;0.80;0.80;;;;;;;5.34;76.22;98180.13;4970412;28;20196;-71
2020/12/27 11:12:33;;;;;;;0.70;0.70;;;;;;;5.37;75.84;98177.63;5012122;28;20177;-70
2020/12/27 11:15:00;;;;;;;0.80;0.80;;;;;;;5.38;76.27;98184.59;4994579;28;20268;-71
2020/12/27 11:17:29;;;;;;;1.43;0.77;;;;;;;5.37;76.36;98169.56;5022627;28;20702;-71
2020/12/27 11:19:55;;;;;;;1.07;0.90;;;;;;;5.51;75.91;98186.50;4994894;28;20221;-70
2020/12/27 11:22:20;;;;;;;1.03;0.90;;;;;;;5.48;76.16;98160.19;5020639;28;20296;-71
2020/12/27 11:24:46;;;;;;;1.33;1.10;;;;;;;5.59;76.42;98146.22;5011927;28;20623;-71
2020/12/27 11:27:13;;;;;;;0.87;0.83;;;;;;;5.61;75.49;98143.22;4971398;28;20794;-71
2020/12/27 11:29:38;;;;;;;1.23;0.90;;;;;;;5.56;76.12;98129.88;5020579;28;20212;-71
2020/12/27 11:32:04;;;;;;;0.93;0.87;;;;;;;5.62;76.68;98128.66;5001124;28;20587;-71
2020/12/27 11:34:30;;;;;;;2.03;0.90;;;;;;;5.60;75.92;98107.44;5000886;28;20635;-71
2020/12/27 11:36:56;;;;;;;1.03;0.93;;;;;;;5.60;75.79;98110.13;5007411;28;20224;-71
2020/12/27 11:39:24;;;;;;;0.80;0.80;;;;;;;5.68;75.73;98092.44;5015293;28;20212;-72
2020/12/27 11:41:50;;;;;;;0.93;0.80;;;;;;;5.69;76.08;98077.91;4990789;28;20300;-73
2020/12/27 11:44:15;;;;;;;0.97;0.90;;;;;;;5.67;75.89;98066.66;4991821;28;20177;-73
2020/12/27 11:46:41;;;;;;;1.30;0.80;;;;;;;5.71;76.38;98070.31;4992892;28;20763;-74
2020/12/27 11:49:10;;;;;;;1.03;0.80;;;;;;;5.66;75.94;98065.84;5029966;28;20287;-74
2020/12/27 11:51:39;;;;;;;1.30;1.00;;;;;;;5.66;76.29;98044.31;5004857;28;20602;-73
2020/12/27 11:54:07;;;;;;;2.50;0.80;;;;;;;5.77;76.00;98041.13;4998181;28;20191;-73
2020/12/27 11:56:36;;;;;;;0.70;0.70;;;;;;;5.69;76.30;98038.31;5012698;28;20217;-73
2020/12/27 11:59:04;;;;;;;1.13;1.00;;;;;;;5.69;77.02;98032.13;5013144;28;20216;-72
2020/12/27 12:01:32;;;;;;;1.23;1.00;;;;;;;5.59;78.54;98027.78;5011243;28;20270;-74
2020/12/27 12:03:57;;;;;;;0.90;0.90;;;;;;;5.66;78.13;98024.66;5009590;28;20192;-77
2020/12/27 12:06:23;;;;;;;1.30;0.87;;;;;;;5.75;76.70;98011.00;5005649;28;20221;-72